createdAt,value
2023-03-13T00:00:27.066Z,99984.13
2023-03-13T00:02:53.546Z,99966.50
2023-03-13T00:05:20.005Z,99953.28
2023-03-13T00:07:46.524Z,99951.91
2023-03-13T00:10:12.960Z,99944.31
2023-03-13T00:12:39.392Z,99940.72
2023-03-13T00:15:06.331Z,99933.41
2023-03-13T00:17:33.415Z,99933.97
2023-03-13T00:20:00.004Z,99937.25
2023-03-13T00:22:26.425Z,99935.16
2023-03-13T00:24:52.898Z,99933.91
2023-03-13T00:27:19.349Z,99915.47
2023-03-13T00:29:45.790Z,99915.31
2023-03-13T00:32:12.245Z,99906.38
2023-03-13T00:34:38.700Z,99900.44
2023-03-13T00:37:05.165Z,99897.03
2023-03-13T00:39:31.804Z,99901.59
2023-03-13T00:41:58.300Z,99898.25
2023-03-13T00:44:24.711Z,99875.56
2023-03-13T00:46:51.123Z,99872.81
2023-03-13T00:49:17.593Z,99884.09
2023-03-13T00:51:44.043Z,99877.06
2023-03-13T00:54:10.497Z,99870.69
2023-03-13T00:56:37.242Z,99875.13
2023-03-13T00:59:03.948Z,99856.97
2023-03-13T01:01:35.688Z,99857.78
2023-03-13T01:04:05.516Z,99841.94
2023-03-13T01:06:34.884Z,99851.59
2023-03-13T01:09:02.267Z,99842.78
2023-03-13T01:11:31.817Z,99840.69
2023-03-13T01:14:03.144Z,99826.50
2023-03-13T01:16:32.335Z,99836.97
2023-03-13T01:19:05.868Z,99847.41
2023-03-13T01:21:32.384Z,99840.25
2023-03-13T01:23:58.935Z,99832.53
2023-03-13T01:26:25.851Z,99828.13
2023-03-13T01:28:52.488Z,99823.88
2023-03-13T01:31:24.841Z,99818.47
2023-03-13T01:33:55.153Z,99811.59
2023-03-13T01:36:22.776Z,99804.75
2023-03-13T01:38:51.111Z,99804.50
2023-03-13T01:41:19.324Z,99799.41
2023-03-13T01:43:46.175Z,99796.28
2023-03-13T01:46:18.480Z,99790.50
2023-03-13T01:49:03.877Z,99783.66
2023-03-13T01:51:45.581Z,99771.84
2023-03-13T01:54:19.461Z,99763.16
2023-03-13T01:56:59.534Z,99761.31
2023-03-13T01:59:30.603Z,99757.09
2023-03-13T02:02:00.496Z,99749.16
2023-03-13T02:04:31.577Z,99740.25
2023-03-13T02:07:02.569Z,99729.13
2023-03-13T02:09:31.894Z,99732.84
2023-03-13T02:11:58.334Z,99724.03
2023-03-13T02:14:28.650Z,99733.69
2023-03-13T02:16:55.638Z,99721.59
2023-03-13T02:19:35.770Z,99714.56
2023-03-13T02:22:23.451Z,99702.34
2023-03-13T02:25:08.402Z,99721.44
2023-03-13T02:27:35.117Z,99701.66
2023-03-13T02:30:02.723Z,99695.91
2023-03-13T02:32:31.239Z,99698.13
2023-03-13T02:35:03.901Z,99698.25
2023-03-13T02:37:30.886Z,99687.97
2023-03-13T02:40:01.093Z,99692.91
2023-03-13T02:42:29.406Z,99694.97
2023-03-13T02:44:55.968Z,99686.19
2023-03-13T02:47:24.818Z,99675.59
2023-03-13T02:49:51.406Z,99665.97
2023-03-13T02:52:28.170Z,99651.25
2023-03-13T02:55:05.413Z,99657.97
2023-03-13T02:57:31.907Z,99645.59
2023-03-13T02:59:58.342Z,99634.84
2023-03-13T03:02:25.017Z,99637.47
2023-03-13T03:04:51.465Z,99629.31
2023-03-13T03:07:17.910Z,99612.53
2023-03-13T03:09:44.411Z,99618.59
2023-03-13T03:12:10.946Z,99632.16
2023-03-13T03:14:37.986Z,99628.16
2023-03-13T03:17:04.506Z,99630.31
2023-03-13T03:19:31.055Z,99617.06
2023-03-13T03:21:57.514Z,99630.84
2023-03-13T03:24:24.000Z,99616.47
2023-03-13T03:26:50.493Z,99624.00
2023-03-13T03:29:16.969Z,99620.13
2023-03-13T03:31:43.531Z,99621.47
2023-03-13T03:34:10.039Z,99612.81
2023-03-13T03:36:36.480Z,99617.06
2023-03-13T03:39:03.708Z,99611.69
2023-03-13T03:41:30.195Z,99616.63
2023-03-13T03:43:56.736Z,99623.03
2023-03-13T03:46:23.383Z,99607.03
2023-03-13T03:48:49.826Z,99595.97
2023-03-13T03:51:16.543Z,99606.78
2023-03-13T03:53:43.012Z,99610.88
2023-03-13T03:56:09.486Z,99608.94
2023-03-13T03:58:36.316Z,99611.41
2023-03-13T04:01:03.639Z,99603.09
2023-03-13T04:03:30.309Z,99605.25
2023-03-13T04:05:57.172Z,99619.66
2023-03-13T04:08:24.127Z,99604.63
2023-03-13T04:10:50.910Z,99594.34
2023-03-13T04:13:17.649Z,99588.84
2023-03-13T04:15:44.161Z,99589.63
2023-03-13T04:18:10.779Z,99582.47
2023-03-13T04:20:37.611Z,99590.97
2023-03-13T04:23:04.132Z,99594.25
2023-03-13T04:25:30.861Z,99595.09
2023-03-13T04:27:57.324Z,99590.66
2023-03-13T04:30:23.849Z,99584.44
2023-03-13T04:32:51.181Z,99594.31
2023-03-13T04:35:18.072Z,99590.22
2023-03-13T04:37:44.645Z,99590.75
2023-03-13T04:40:12.632Z,99590.13
2023-03-13T04:42:40.251Z,99589.03
2023-03-13T04:45:07.945Z,99594.78
2023-03-13T04:47:34.349Z,99583.00
2023-03-13T04:50:00.824Z,99572.06
2023-03-13T04:52:27.253Z,99606.63
2023-03-13T04:54:53.732Z,99587.47
2023-03-13T04:57:20.178Z,99568.81
2023-03-13T04:59:46.743Z,99572.25
2023-03-13T05:02:13.950Z,99584.06
2023-03-13T05:04:40.728Z,99567.03
2023-03-13T05:07:07.190Z,99560.50
2023-03-13T05:09:33.605Z,99550.81
2023-03-13T05:12:00.136Z,99543.78
2023-03-13T05:14:26.772Z,99535.94
2023-03-13T05:16:53.222Z,99534.94
2023-03-13T05:19:19.747Z,99536.72
2023-03-13T05:21:46.173Z,99527.75
2023-03-13T05:24:12.565Z,99537.38
2023-03-13T05:26:38.978Z,99531.34
2023-03-13T05:29:05.413Z,99528.56
2023-03-13T05:31:31.954Z,99521.50
2023-03-13T05:33:58.417Z,99518.56
2023-03-13T05:36:24.870Z,99522.00
2023-03-13T05:38:51.349Z,99523.50
2023-03-13T05:41:18.043Z,99526.91
2023-03-13T05:43:44.442Z,99535.44
2023-03-13T05:46:10.895Z,99546.44
2023-03-13T05:48:37.377Z,99531.34
2023-03-13T05:51:03.979Z,99534.97
2023-03-13T05:53:30.471Z,99533.78
2023-03-13T05:55:56.908Z,99539.22
2023-03-13T05:58:23.321Z,99547.56
2023-03-13T06:00:49.775Z,99540.53
2023-03-13T06:03:16.218Z,99548.38
2023-03-13T06:05:42.690Z,99542.84
2023-03-13T06:08:09.154Z,99560.84
2023-03-13T06:10:35.987Z,99558.72
2023-03-13T06:13:17.184Z,99553.28
2023-03-13T06:15:56.333Z,99555.75
2023-03-13T06:18:23.629Z,99556.09
2023-03-13T06:20:55.637Z,99549.38
2023-03-13T06:23:22.272Z,99549.03
2023-03-13T06:25:48.843Z,99544.44
2023-03-13T06:28:16.246Z,99544.28
2023-03-13T06:30:42.927Z,99546.09
2023-03-13T06:33:09.519Z,99553.78
2023-03-13T06:35:49.298Z,99552.78
2023-03-13T06:38:21.425Z,99541.16
2023-03-13T06:40:48.045Z,99558.53
2023-03-13T06:43:14.485Z,99572.97
2023-03-13T06:45:40.881Z,99562.00
2023-03-13T06:48:07.332Z,99578.53
2023-03-13T06:50:37.595Z,99557.53
2023-03-13T06:53:03.988Z,99566.09
2023-03-13T06:55:30.387Z,99554.59
2023-03-13T06:57:56.829Z,99569.19
2023-03-13T07:00:23.622Z,99551.81
2023-03-13T07:02:50.915Z,99543.94
2023-03-13T07:05:17.511Z,99542.13
2023-03-13T07:07:44.243Z,99545.91
2023-03-13T07:10:11.726Z,99549.19
2023-03-13T07:12:38.224Z,99559.66
2023-03-13T07:15:05.889Z,99546.06
2023-03-13T07:17:32.462Z,99552.63
2023-03-13T07:19:58.954Z,99544.41
2023-03-13T07:22:25.382Z,99540.16
2023-03-13T07:24:51.868Z,99534.91
2023-03-13T07:27:21.076Z,99534.25
2023-03-13T07:29:47.653Z,99519.97
2023-03-13T07:32:14.210Z,99510.94
2023-03-13T07:34:40.659Z,99518.63
2023-03-13T07:37:07.185Z,99516.66
2023-03-13T07:39:33.585Z,99518.13
2023-03-13T07:41:59.971Z,99511.09
2023-03-13T07:44:26.417Z,99508.94
2023-03-13T07:46:52.906Z,99517.63
2023-03-13T07:49:19.322Z,99509.91
2023-03-13T07:51:48.082Z,99494.69
2023-03-13T07:54:14.606Z,99497.97
2023-03-13T07:56:42.241Z,99492.53
2023-03-13T07:59:09.585Z,99494.53
2023-03-13T08:01:36.381Z,99489.75
2023-03-13T08:04:03.558Z,99482.53
2023-03-13T08:06:33.788Z,99509.75
2023-03-13T08:09:00.668Z,99496.00
2023-03-13T08:11:29.087Z,99507.28
2023-03-13T08:13:56.907Z,99488.59
2023-03-13T08:16:28.838Z,99500.56
2023-03-13T08:18:57.733Z,99496.28
2023-03-13T08:21:29.225Z,99493.66
2023-03-13T08:23:58.052Z,99538.75
2023-03-13T08:26:27.759Z,99493.81
2023-03-13T08:28:57.214Z,99492.31
2023-03-13T08:31:26.439Z,99502.81
2023-03-13T08:33:53.086Z,99518.41
2023-03-13T08:36:24.532Z,99501.66
2023-03-13T08:38:53.078Z,99504.09
2023-03-13T08:41:28.909Z,99498.84
2023-03-13T08:43:56.654Z,99507.72
2023-03-13T08:46:23.833Z,99498.34
2023-03-13T08:48:51.595Z,99503.47
2023-03-13T08:51:20.035Z,99487.91
2023-03-13T08:53:47.155Z,99484.16
2023-03-13T08:56:16.839Z,99497.63
2023-03-13T08:58:44.058Z,99475.31
2023-03-13T09:01:12.578Z,99468.91
2023-03-13T09:03:40.149Z,99471.22
2023-03-13T09:06:07.312Z,99473.19
2023-03-13T09:08:34.079Z,99488.28
2023-03-13T09:11:03.623Z,99474.84
2023-03-13T09:13:31.678Z,99461.41
2023-03-13T09:16:04.139Z,99471.50
2023-03-13T09:18:31.356Z,99461.91
2023-03-13T09:20:57.816Z,99448.91
2023-03-13T09:23:24.573Z,99446.44
2023-03-13T09:25:56.551Z,99450.50
2023-03-13T09:28:25.326Z,99458.16
2023-03-13T09:30:52.910Z,99448.88
2023-03-13T09:33:22.846Z,99456.28
2023-03-13T09:35:50.983Z,99454.00
2023-03-13T09:38:21.821Z,99451.38
2023-03-13T09:41:05.360Z,99445.03
2023-03-13T09:43:53.562Z,99450.66
2023-03-13T09:46:28.044Z,99435.78
2023-03-13T09:49:03.064Z,99444.50
2023-03-13T09:51:36.563Z,99429.84
2023-03-13T09:54:29.065Z,99432.47
2023-03-13T09:57:03.610Z,99425.59
2023-03-13T09:59:46.205Z,99395.16
2023-03-13T10:02:21.772Z,99412.59
2023-03-13T10:04:56.057Z,99426.31
2023-03-13T10:07:22.439Z,99418.44
2023-03-13T10:09:48.916Z,99434.84
2023-03-13T10:12:24.486Z,99405.41
2023-03-13T10:15:09.682Z,99407.34
2023-03-13T10:17:38.529Z,99411.03
2023-03-13T10:20:17.663Z,99387.72
2023-03-13T10:22:52.031Z,99391.22
2023-03-13T10:25:30.380Z,99399.78
2023-03-13T10:27:58.017Z,99407.59
2023-03-13T10:30:36.727Z,99382.56
2023-03-13T10:33:11.935Z,99404.06
2023-03-13T10:35:41.209Z,99374.31
2023-03-13T10:38:19.208Z,99370.50
2023-03-13T10:41:07.419Z,99393.09
2023-03-13T10:43:33.872Z,99376.97
2023-03-13T10:46:01.323Z,99370.16
2023-03-13T10:48:35.797Z,99376.81
2023-03-13T10:51:02.557Z,99370.00
2023-03-13T10:53:29.291Z,99365.34
2023-03-13T10:56:02.073Z,99370.63
2023-03-13T10:58:42.781Z,99377.69
2023-03-13T11:01:28.895Z,99367.94
2023-03-13T11:03:57.423Z,99374.84
2023-03-13T11:06:25.721Z,99353.50
2023-03-13T11:09:14.153Z,99343.75
2023-03-13T11:11:53.940Z,99353.50
2023-03-13T11:14:34.996Z,99345.31
2023-03-13T11:17:30.628Z,99345.41
2023-03-13T11:20:06.073Z,99321.00
2023-03-13T11:22:46.510Z,99338.53
2023-03-13T11:25:23.241Z,99308.19
2023-03-13T11:28:26.610Z,99323.28
2023-03-13T11:30:59.083Z,99295.56
2023-03-13T11:33:34.988Z,99299.97
2023-03-13T11:36:12.543Z,99310.75
2023-03-13T11:38:53.517Z,99296.06
2023-03-13T11:41:44.052Z,99297.19
2023-03-13T11:44:51.477Z,99305.81
2023-03-13T11:47:26.468Z,99282.50
2023-03-13T11:50:19.021Z,99279.41
2023-03-13T11:52:55.576Z,99280.41
2023-03-13T11:55:41.703Z,99264.88
2023-03-13T11:58:29.643Z,99273.19
2023-03-13T12:01:01.695Z,99270.50
2023-03-13T12:03:56.643Z,99250.31
2023-03-13T12:06:31.025Z,99257.03
2023-03-13T12:09:20.891Z,99246.88
2023-03-13T12:12:03.405Z,99244.03
2023-03-13T12:14:48.459Z,99244.63
2023-03-13T12:17:30.258Z,99220.97
2023-03-13T12:20:09.141Z,99219.41
2023-03-13T12:22:42.723Z,99228.34
2023-03-13T12:25:31.937Z,99217.81
2023-03-13T12:28:11.388Z,99220.81
2023-03-13T12:30:45.424Z,99216.84
2023-03-13T12:33:13.056Z,99211.09
2023-03-13T12:35:44.669Z,99199.44
2023-03-13T12:38:20.870Z,99189.13
2023-03-13T12:41:24.546Z,99174.28
2023-03-13T12:44:07.750Z,99188.63
2023-03-13T12:46:46.492Z,99168.09
2023-03-13T12:49:20.689Z,99180.44
2023-03-13T12:52:07.089Z,99168.56
2023-03-13T12:54:56.845Z,99143.47
2023-03-13T12:57:26.260Z,99179.97
2023-03-13T12:59:59.088Z,99172.34
2023-03-13T13:02:30.584Z,99196.03
2023-03-13T13:05:02.448Z,99164.38
2023-03-13T13:07:33.335Z,99139.41
2023-03-13T13:10:11.981Z,99150.59
2023-03-13T13:12:40.469Z,99139.44
2023-03-13T13:15:20.398Z,99167.78
2023-03-13T13:17:55.758Z,99146.13
2023-03-13T13:20:33.306Z,99123.84
2023-03-13T13:23:23.881Z,99145.69
2023-03-13T13:25:51.217Z,99146.53
2023-03-13T13:28:21.621Z,99111.47
2023-03-13T13:30:49.961Z,99126.66
2023-03-13T13:33:19.721Z,99141.88
2023-03-13T13:35:47.855Z,99133.78
2023-03-13T13:38:29.423Z,99106.75
2023-03-13T13:41:11.885Z,99138.13
2023-03-13T13:43:39.304Z,99096.13
2023-03-13T13:46:31.237Z,99097.72
2023-03-13T13:49:07.529Z,99097.53
2023-03-13T13:51:37.189Z,99101.56
2023-03-13T13:54:25.688Z,99080.25
2023-03-13T13:56:58.285Z,99071.34
2023-03-13T13:59:41.176Z,99072.75
2023-03-13T14:02:09.817Z,99104.84
2023-03-13T14:04:50.376Z,99094.25
2023-03-13T14:07:21.873Z,99086.09
2023-03-13T14:10:19.038Z,99061.94
2023-03-13T14:12:57.577Z,99053.47
2023-03-13T14:15:29.376Z,99051.03
2023-03-13T14:18:12.048Z,99037.28
2023-03-13T14:20:51.421Z,99038.72
2023-03-13T14:23:40.008Z,99019.88
2023-03-13T14:26:18.628Z,99042.16
2023-03-13T14:28:48.397Z,99045.59
2023-03-13T14:31:26.047Z,99062.97
2023-03-13T14:33:53.244Z,99064.81
2023-03-13T14:36:19.988Z,99051.53
2023-03-13T14:38:55.112Z,99048.50
2023-03-13T14:41:36.231Z,99044.66
2023-03-13T14:44:05.747Z,99047.47
2023-03-13T14:46:35.455Z,99038.38
2023-03-13T14:49:20.941Z,99034.94
2023-03-13T14:51:58.219Z,99039.81
2023-03-13T14:54:36.698Z,99029.25
2023-03-13T14:57:16.055Z,99022.31
2023-03-13T14:59:43.868Z,99032.22
2023-03-13T15:02:43.271Z,99019.69
2023-03-13T15:05:31.382Z,99002.88
2023-03-13T15:07:58.119Z,99007.09
2023-03-13T15:10:32.207Z,99007.72
2023-03-13T15:12:58.919Z,99007.69
2023-03-13T15:15:25.637Z,98988.88
2023-03-13T15:17:52.122Z,98985.44
2023-03-13T15:20:18.703Z,98974.31
2023-03-13T15:22:46.486Z,98983.22
2023-03-13T15:25:21.352Z,98980.22
2023-03-13T15:27:49.024Z,98969.47
2023-03-13T15:30:23.447Z,98969.72
2023-03-13T15:32:50.169Z,98952.94
2023-03-13T15:35:29.438Z,98952.66
2023-03-13T15:37:58.059Z,98980.00
2023-03-13T15:40:25.531Z,98945.06
2023-03-13T15:42:53.147Z,98955.41
2023-03-13T15:45:19.926Z,98941.22
2023-03-13T15:47:46.382Z,98950.75
2023-03-13T15:50:14.375Z,98930.69
2023-03-13T15:52:40.886Z,98916.88
2023-03-13T15:55:08.441Z,98910.63
2023-03-13T15:57:37.428Z,98922.78
2023-03-13T16:00:06.763Z,98898.25
2023-03-13T16:02:33.290Z,98894.63
2023-03-13T16:04:59.761Z,98893.56
2023-03-13T16:07:26.196Z,98903.50
2023-03-13T16:09:52.749Z,98903.84
2023-03-13T16:12:19.153Z,98887.22
2023-03-13T16:14:45.597Z,98881.31
2023-03-13T16:17:17.633Z,98874.81
2023-03-13T16:19:45.366Z,98862.25
2023-03-13T16:22:12.334Z,98870.50
2023-03-13T16:24:39.191Z,98878.19
2023-03-13T16:27:16.750Z,98865.78
2023-03-13T16:29:44.779Z,98864.56
2023-03-13T16:32:16.581Z,98866.38
2023-03-13T16:34:43.386Z,98852.78
2023-03-13T16:37:15.575Z,98851.34
2023-03-13T16:39:43.487Z,98855.41
2023-03-13T16:42:10.713Z,98848.72
2023-03-13T16:44:37.490Z,98865.69
2023-03-13T16:47:15.561Z,98853.88
2023-03-13T16:49:41.987Z,98859.53
2023-03-13T16:52:14.384Z,98870.25
2023-03-13T16:54:40.866Z,98877.34
2023-03-13T16:57:17.097Z,98868.97
2023-03-13T16:59:43.590Z,98867.53
2023-03-13T17:02:15.539Z,98867.09
2023-03-13T17:04:44.582Z,98870.16
2023-03-13T17:07:18.506Z,98860.03
2023-03-13T17:09:45.013Z,98867.66
2023-03-13T17:12:11.422Z,98865.03
2023-03-13T17:14:37.973Z,98860.78
2023-03-13T17:17:04.883Z,98847.22
2023-03-13T17:19:31.435Z,98841.13
2023-03-13T17:21:57.966Z,98837.09
2023-03-13T17:24:24.466Z,98836.09
2023-03-13T17:26:51.060Z,98836.88
2023-03-13T17:29:18.867Z,98832.84
2023-03-13T17:31:45.537Z,98835.28
2023-03-13T17:34:13.056Z,98828.97
2023-03-13T17:36:42.769Z,98832.78
2023-03-13T17:39:14.622Z,98838.44
2023-03-13T17:41:41.414Z,98824.47
2023-03-13T17:44:07.890Z,98817.59
2023-03-13T17:46:44.074Z,98818.00
2023-03-13T17:49:15.075Z,98797.56
2023-03-13T17:51:44.314Z,98788.41
2023-03-13T17:54:11.232Z,98791.25
2023-03-13T17:56:40.566Z,98789.81
2023-03-13T17:59:12.240Z,98797.09
2023-03-13T18:01:38.803Z,98800.06
2023-03-13T18:04:05.354Z,98811.16
2023-03-13T18:06:38.328Z,98830.94
2023-03-13T18:09:08.509Z,98832.31
2023-03-13T18:11:37.218Z,98848.06
2023-03-13T18:14:05.393Z,98831.50
2023-03-13T18:16:47.452Z,98833.50
2023-03-13T18:19:16.752Z,98841.56
2023-03-13T18:21:45.124Z,98828.84
2023-03-13T18:24:13.322Z,98826.22
2023-03-13T18:26:42.537Z,98828.19
2023-03-13T18:29:20.174Z,98830.19
2023-03-13T18:31:48.094Z,98831.38
2023-03-13T18:34:15.158Z,98829.53
2023-03-13T18:36:42.751Z,98818.38
2023-03-13T18:39:14.918Z,98831.28
2023-03-13T18:41:41.382Z,98830.00
2023-03-13T18:44:07.833Z,98816.09
2023-03-13T18:46:34.672Z,98810.63
2023-03-13T18:49:01.439Z,98823.53
2023-03-13T18:51:28.508Z,98821.91
2023-03-13T18:53:55.717Z,98812.41
2023-03-13T18:56:28.087Z,98826.88
2023-03-13T18:58:56.211Z,98822.38
2023-03-13T19:01:25.024Z,98821.13
2023-03-13T19:03:51.982Z,98818.66
2023-03-13T19:06:31.430Z,98812.78
2023-03-13T19:09:00.883Z,98808.16
2023-03-13T19:11:30.495Z,98799.06
2023-03-13T19:13:57.759Z,98807.50
2023-03-13T19:16:47.143Z,98788.31
2023-03-13T19:19:15.922Z,98787.50
2023-03-13T19:21:42.348Z,98781.59
2023-03-13T19:24:08.952Z,98770.50
2023-03-13T19:26:39.543Z,98766.63
2023-03-13T19:29:17.517Z,98760.94
2023-03-13T19:31:44.215Z,98753.44
2023-03-13T19:34:11.000Z,98755.25
2023-03-13T19:36:39.862Z,98740.53
2023-03-13T19:39:17.665Z,98730.38
2023-03-13T19:41:44.909Z,98735.00
2023-03-13T19:44:11.355Z,98729.34
2023-03-13T19:46:43.156Z,98722.66
2023-03-13T19:49:17.735Z,98710.97
2023-03-13T19:51:44.344Z,98716.53
2023-03-13T19:54:11.807Z,98712.31
2023-03-13T19:56:44.475Z,98717.91
2023-03-13T19:59:16.524Z,98725.69
2023-03-13T20:01:43.852Z,98733.94
2023-03-13T20:04:11.301Z,98731.66
2023-03-13T20:06:39.452Z,98741.53
2023-03-13T20:09:09.128Z,98748.66
2023-03-13T20:11:36.314Z,98753.03
2023-03-13T20:14:03.537Z,98750.97
2023-03-13T20:16:34.889Z,98744.66
2023-03-13T20:19:01.638Z,98747.63
2023-03-13T20:21:36.267Z,98752.63
2023-03-13T20:24:03.209Z,98754.31
2023-03-13T20:26:30.098Z,98747.81
2023-03-13T20:28:57.265Z,98739.78
2023-03-13T20:31:26.940Z,98746.81
2023-03-13T20:33:54.452Z,98750.16
2023-03-13T20:36:21.122Z,98752.13
2023-03-13T20:38:48.195Z,98755.50
2023-03-13T20:41:24.382Z,98750.81
2023-03-13T20:43:52.308Z,98740.66
2023-03-13T20:46:19.339Z,98754.13
2023-03-13T20:48:45.989Z,98762.50
2023-03-13T20:51:13.222Z,98755.34
2023-03-13T20:53:41.780Z,98742.25
2023-03-13T20:56:09.979Z,98737.00
2023-03-13T20:58:36.887Z,98744.88
2023-03-13T21:01:05.011Z,98753.53
2023-03-13T21:03:35.117Z,98754.09
2023-03-13T21:06:15.460Z,98758.16
2023-03-13T21:08:42.847Z,98760.31
2023-03-13T21:11:14.554Z,98770.78
2023-03-13T21:13:41.003Z,98778.16
2023-03-13T21:16:08.333Z,98769.31
2023-03-13T21:18:34.835Z,98772.31
2023-03-13T21:21:15.119Z,98764.25
2023-03-13T21:23:41.879Z,98737.91
2023-03-13T21:26:08.794Z,98742.69
2023-03-13T21:28:35.361Z,98725.19
2023-03-13T21:31:10.842Z,98738.63
2023-03-13T21:33:38.389Z,98743.94
2023-03-13T21:36:05.439Z,98745.28
2023-03-13T21:38:31.921Z,98720.28
2023-03-13T21:40:59.132Z,98709.97
2023-03-13T21:43:28.129Z,98710.34
2023-03-13T21:45:59.313Z,98704.81
2023-03-13T21:48:26.442Z,98713.03
2023-03-13T21:50:53.265Z,98736.13
2023-03-13T21:53:20.110Z,98736.28
2023-03-13T21:55:50.874Z,98756.75
2023-03-13T21:58:18.146Z,98752.16
2023-03-13T22:00:44.725Z,98768.19
2023-03-13T22:03:11.345Z,98765.13
2023-03-13T22:05:44.655Z,98772.16
2023-03-13T22:08:12.172Z,98779.00
2023-03-13T22:10:39.054Z,98765.47
2023-03-13T22:13:07.152Z,98770.53
2023-03-13T22:15:34.488Z,98764.19
2023-03-13T22:18:01.019Z,98779.44
2023-03-13T22:20:27.747Z,98771.56
2023-03-13T22:22:54.286Z,98771.75
2023-03-13T22:25:21.111Z,98768.31
2023-03-13T22:27:47.596Z,98774.19
2023-03-13T22:30:14.502Z,98772.56
2023-03-13T22:32:41.095Z,98759.19
2023-03-13T22:35:08.433Z,98745.31
2023-03-13T22:37:34.958Z,98744.50
2023-03-13T22:40:01.439Z,98742.25
2023-03-13T22:42:27.854Z,98741.41
2023-03-13T22:44:55.561Z,98735.72
2023-03-13T22:47:22.367Z,98745.53
2023-03-13T22:49:48.862Z,98745.53
2023-03-13T22:52:15.331Z,98735.88
2023-03-13T22:54:41.733Z,98721.38
2023-03-13T22:57:08.192Z,98705.69
2023-03-13T22:59:35.435Z,98702.25
2023-03-13T23:02:01.986Z,98708.00
2023-03-13T23:04:28.441Z,98707.38
2023-03-13T23:06:54.890Z,98697.72
2023-03-13T23:09:21.326Z,98699.22
2023-03-13T23:11:47.784Z,98702.19
2023-03-13T23:14:14.182Z,98717.00
2023-03-13T23:16:40.818Z,98720.91
2023-03-13T23:19:07.756Z,98726.13
2023-03-13T23:21:34.242Z,98739.38
2023-03-13T23:24:00.725Z,98731.00
2023-03-13T23:26:27.175Z,98719.41
2023-03-13T23:28:53.586Z,98709.56
2023-03-13T23:31:21.492Z,98708.41
2023-03-13T23:33:48.950Z,98687.34
2023-03-13T23:36:17.932Z,98672.13
2023-03-13T23:38:49.182Z,98679.84
2023-03-13T23:41:15.749Z,98671.69
2023-03-13T23:43:42.290Z,98679.34
2023-03-13T23:46:16.815Z,98692.34
2023-03-13T23:48:43.285Z,98681.53
2023-03-13T23:51:09.925Z,98678.94
2023-03-13T23:53:37.841Z,98689.19
2023-03-13T23:56:04.780Z,98682.00
2023-03-13T23:58:31.434Z,98664.50
